createdAt,value
2022-09-27T00:01:40.983Z,41.30
2022-09-27T00:11:47.930Z,40.10
2022-09-27T00:21:55.098Z,43.90
2022-09-27T00:32:02.501Z,38.30
2022-09-27T00:42:13.616Z,107.80
2022-09-27T00:52:25.425Z,88.20
2022-09-27T01:02:33.644Z,63.80
2022-09-27T01:12:40.386Z,45.10
2022-09-27T01:22:46.487Z,59.10
2022-09-27T01:32:53.356Z,44.40
2022-09-27T01:42:58.569Z,42.20
2022-09-27T01:53:07.213Z,58.70
2022-09-27T02:03:18.631Z,63.80
2022-09-27T02:13:29.419Z,48.90
2022-09-27T02:23:35.310Z,37.70
2022-09-27T02:33:40.235Z,37.50
2022-09-27T02:43:49.810Z,53.80
2022-09-27T02:53:58.500Z,37.50
2022-09-27T03:04:04.593Z,39.40
2022-09-27T03:14:11.768Z,39.20
2022-09-27T03:24:18.225Z,38.40
2022-09-27T03:34:25.187Z,36.80
2022-09-27T03:44:33.107Z,35.30
2022-09-27T03:54:40.454Z,29.90
2022-09-27T04:04:46.462Z,29.90
2022-09-27T04:14:55.448Z,36.60
2022-09-27T04:25:01.618Z,44.50
2022-09-27T04:35:22.001Z,42.70
2022-09-27T04:45:29.196Z,40.00
2022-09-27T04:55:34.288Z,37.10
2022-09-27T05:05:41.545Z,35.00
2022-09-27T05:15:48.644Z,46.90
2022-09-27T05:25:56.657Z,41.40
2022-09-27T05:36:02.659Z,34.10
2022-09-27T05:46:10.091Z,36.30
2022-09-27T05:56:16.135Z,51.40
2022-09-27T06:06:22.989Z,49.40
2022-09-27T06:16:30.259Z,44.00
2022-09-27T06:26:37.745Z,42.50
2022-09-27T06:36:48.276Z,41.00
2022-09-27T06:46:58.032Z,41.90
2022-09-27T06:57:05.265Z,38.40
2022-09-27T07:07:14.214Z,35.90
2022-09-27T07:17:21.534Z,33.50
2022-09-27T07:27:28.987Z,34.00
2022-09-27T07:37:35.429Z,31.10
2022-09-27T07:47:41.215Z,24.50
2022-09-27T07:57:48.606Z,24.00
2022-09-27T08:07:55.608Z,18.20
2022-09-27T08:18:01.649Z,19.20
2022-09-27T08:28:08.768Z,17.20
2022-09-27T08:38:15.429Z,15.90
2022-09-27T08:48:22.307Z,10.20
2022-09-27T08:58:29.424Z,10.70
2022-09-27T09:08:39.907Z,10.60
2022-09-27T09:18:59.420Z,6.80
2022-09-27T09:29:11.568Z,8.30
2022-09-27T09:39:16.676Z,4.80
2022-09-27T09:49:24.122Z,3.00
2022-09-27T09:59:30.714Z,5.70
2022-09-27T10:09:37.909Z,6.30
2022-09-27T10:19:46.005Z,6.10
2022-09-27T10:29:57.882Z,4.40
2022-09-27T10:40:02.689Z,3.80
2022-09-27T10:50:38.934Z,4.50
2022-09-27T11:00:42.241Z,3.90
2022-09-27T11:11:02.274Z,4.80
2022-09-27T11:21:09.943Z,3.10
2022-09-27T11:31:19.487Z,2.20
2022-09-27T11:41:31.980Z,2.40
2022-09-27T11:51:43.203Z,3.40
2022-09-27T12:01:56.049Z,3.20
2022-09-27T12:12:04.316Z,7.70
2022-09-27T12:22:29.767Z,3.20
2022-09-27T12:32:45.958Z,5.20
2022-09-27T12:42:50.958Z,3.90
2022-09-27T12:52:58.673Z,3.30
2022-09-27T13:03:26.301Z,3.60
2022-09-27T13:13:36.898Z,4.10
2022-09-27T13:23:59.910Z,4.20
2022-09-27T13:34:28.119Z,9.20
2022-09-27T13:44:41.799Z,7.10
2022-09-27T13:54:51.728Z,15.70
2022-09-27T14:05:01.410Z,7.70
2022-09-27T14:15:06.178Z,8.60
2022-09-27T14:25:20.539Z,4.50
2022-09-27T14:35:46.668Z,3.40
2022-09-27T14:45:58.723Z,5.50
2022-09-27T14:56:08.373Z,5.40
2022-09-27T15:06:16.358Z,9.00
2022-09-27T15:16:26.952Z,8.10
2022-09-27T15:26:36.369Z,10.50
2022-09-27T15:36:54.189Z,7.10
2022-09-27T15:47:01.664Z,5.70
2022-09-27T15:57:12.678Z,4.60
2022-09-27T16:07:19.849Z,6.60
2022-09-27T16:17:27.107Z,6.00
2022-09-27T16:27:34.155Z,5.90
2022-09-27T16:37:42.583Z,4.10
2022-09-27T16:47:50.216Z,6.90
2022-09-27T16:57:59.319Z,13.50
2022-09-27T17:08:08.180Z,32.00
2022-09-27T17:18:15.749Z,28.10
2022-09-27T17:28:23.318Z,33.20
2022-09-27T17:38:29.708Z,27.70
2022-09-27T17:48:55.243Z,27.70
2022-09-27T17:59:02.434Z,30.00
2022-09-27T18:09:10.031Z,32.80
2022-09-27T18:19:18.643Z,21.90
2022-09-27T18:29:26.009Z,28.70
2022-09-27T18:39:31.993Z,20.90
2022-09-27T18:49:39.371Z,21.50
2022-09-27T18:59:47.099Z,23.60
2022-09-27T19:09:54.141Z,25.30
2022-09-27T19:20:00.173Z,24.20
2022-09-27T19:30:06.434Z,21.80
2022-09-27T19:40:13.100Z,29.90
2022-09-27T20:00:26.766Z,25.50
2022-09-27T20:10:34.253Z,26.80
2022-09-27T20:20:41.639Z,24.80
2022-09-27T20:30:57.187Z,33.50
2022-09-27T20:41:04.666Z,27.70
2022-09-27T20:51:14.421Z,24.70
2022-09-27T21:01:22.006Z,23.00
2022-09-27T21:11:28.748Z,19.10
2022-09-27T21:21:36.022Z,17.20
2022-09-27T21:31:43.299Z,22.90
2022-09-27T21:41:50.885Z,28.20
2022-09-27T21:51:57.983Z,11.00
2022-09-27T22:02:03.862Z,9.20
2022-09-27T22:12:11.296Z,4.90
2022-09-27T22:22:18.437Z,6.80
2022-09-27T22:32:25.703Z,7.70
2022-09-27T22:42:32.792Z,8.10
2022-09-27T22:52:39.793Z,6.20
2022-09-27T23:02:47.380Z,6.50
2022-09-27T23:12:54.976Z,5.50
2022-09-27T23:23:01.940Z,6.80
2022-09-27T23:33:08.546Z,5.20
2022-09-27T23:43:14.371Z,7.50
2022-09-27T23:53:21.956Z,11.70
